sensor_id;sensor_type;location;lat;lon;timestamp;P1;durP1;ratioP1;P2;durP2;ratioP2
41141;SDS011;63666;52.284;20.890;2022-10-18T00:01:04;11.70;;;10.50;;
41141;SDS011;63666;52.284;20.890;2022-10-18T00:03:42;11.50;;;10.30;;
41141;SDS011;63666;52.284;20.890;2022-10-18T00:06:14;11.60;;;10.20;;
41141;SDS011;63666;52.284;20.890;2022-10-18T00:08:46;11.90;;;10.60;;
41141;SDS011;63666;52.284;20.890;2022-10-18T00:11:18;11.40;;;10.30;;
41141;SDS011;63666;52.284;20.890;2022-10-18T00:13:52;11.10;;;9.90;;
41141;SDS011;63666;52.284;20.890;2022-10-18T00:16:26;10.90;;;9.80;;
41141;SDS011;63666;52.284;20.890;2022-10-18T00:18:58;11.40;;;9.70;;
41141;SDS011;63666;52.284;20.890;2022-10-18T00:21:30;11.20;;;10.10;;
41141;SDS011;63666;52.284;20.890;2022-10-18T00:24:02;10.50;;;9.40;;
41141;SDS011;63666;52.284;20.890;2022-10-18T00:26:35;10.70;;;9.40;;
41141;SDS011;63666;52.284;20.890;2022-10-18T00:29:09;11.50;;;10.20;;
41141;SDS011;63666;52.284;20.890;2022-10-18T00:31:44;10.90;;;9.80;;
41141;SDS011;63666;52.284;20.890;2022-10-18T00:34:16;10.00;;;9.00;;
41141;SDS011;63666;52.284;20.890;2022-10-18T00:36:48;11.00;;;9.80;;
41141;SDS011;63666;52.284;20.890;2022-10-18T00:39:21;10.90;;;9.60;;
41141;SDS011;63666;52.284;20.890;2022-10-18T00:41:53;10.80;;;9.60;;
41141;SDS011;63666;52.284;20.890;2022-10-18T00:45:04;10.60;;;9.30;;
41141;SDS011;63666;52.284;20.890;2022-10-18T00:47:44;10.50;;;9.30;;
41141;SDS011;63666;52.284;20.890;2022-10-18T00:50:20;10.50;;;9.50;;
41141;SDS011;63666;52.284;20.890;2022-10-18T00:52:54;11.10;;;9.80;;
41141;SDS011;63666;52.284;20.890;2022-10-18T00:55:30;10.10;;;9.10;;
41141;SDS011;63666;52.284;20.890;2022-10-18T00:58:06;9.80;;;8.80;;
41141;SDS011;63666;52.284;20.890;2022-10-18T01:00:39;10.10;;;8.90;;
41141;SDS011;63666;52.284;20.890;2022-10-18T01:03:11;10.30;;;8.90;;
41141;SDS011;63666;52.284;20.890;2022-10-18T01:05:46;10.50;;;9.40;;
41141;SDS011;63666;52.284;20.890;2022-10-18T01:08:47;9.70;;;8.70;;
41141;SDS011;63666;52.284;20.890;2022-10-18T01:11:40;9.40;;;8.40;;
41141;SDS011;63666;52.284;20.890;2022-10-18T01:14:29;10.20;;;8.80;;
41141;SDS011;63666;52.284;20.890;2022-10-18T01:17:19;11.40;;;9.10;;
41141;SDS011;63666;52.284;20.890;2022-10-18T01:23:37;10.20;;;8.50;;
41141;SDS011;63666;52.284;20.890;2022-10-18T01:26:38;10.10;;;8.70;;
41141;SDS011;63666;52.284;20.890;2022-10-18T01:29:34;9.40;;;8.50;;
41141;SDS011;63666;52.284;20.890;2022-10-18T01:32:18;9.30;;;8.30;;
41141;SDS011;63666;52.284;20.890;2022-10-18T01:34:57;9.90;;;8.40;;
41141;SDS011;63666;52.284;20.890;2022-10-18T01:37:32;10.00;;;9.00;;
41141;SDS011;63666;52.284;20.890;2022-10-18T01:40:07;9.80;;;8.50;;
41141;SDS011;63666;52.284;20.890;2022-10-18T01:42:43;9.60;;;8.30;;
41141;SDS011;63666;52.284;20.890;2022-10-18T01:45:17;9.90;;;8.90;;
41141;SDS011;63666;52.284;20.890;2022-10-18T01:47:50;9.90;;;8.40;;
41141;SDS011;63666;52.284;20.890;2022-10-18T01:53:03;9.30;;;8.20;;
41141;SDS011;63666;52.284;20.890;2022-10-18T01:55:39;8.80;;;7.90;;
41141;SDS011;63666;52.284;20.890;2022-10-18T01:58:20;9.50;;;8.40;;
41141;SDS011;63666;52.284;20.890;2022-10-18T02:01:02;8.90;;;7.70;;
41141;SDS011;63666;52.284;20.890;2022-10-18T02:03:40;9.80;;;8.00;;
41141;SDS011;63666;52.284;20.890;2022-10-18T02:06:20;10.50;;;8.40;;
41141;SDS011;63666;52.284;20.890;2022-10-18T02:09:01;9.40;;;8.00;;
41141;SDS011;63666;52.284;20.890;2022-10-18T02:11:38;9.50;;;8.50;;
41141;SDS011;63666;52.284;20.890;2022-10-18T02:14:12;9.40;;;7.70;;
41141;SDS011;63666;52.284;20.890;2022-10-18T02:16:48;8.70;;;7.70;;
41141;SDS011;63666;52.284;20.890;2022-10-18T02:19:26;9.10;;;7.70;;
41141;SDS011;63666;52.284;20.890;2022-10-18T02:22:03;9.00;;;7.40;;
41141;SDS011;63666;52.284;20.890;2022-10-18T02:24:40;8.80;;;7.40;;
41141;SDS011;63666;52.284;20.890;2022-10-18T02:27:14;8.70;;;7.50;;
41141;SDS011;63666;52.284;20.890;2022-10-18T02:29:47;8.10;;;7.20;;
41141;SDS011;63666;52.284;20.890;2022-10-18T02:32:26;9.10;;;7.90;;
41141;SDS011;63666;52.284;20.890;2022-10-18T02:35:07;8.00;;;7.10;;
41141;SDS011;63666;52.284;20.890;2022-10-18T02:37:47;9.30;;;7.60;;
41141;SDS011;63666;52.284;20.890;2022-10-18T02:40:20;9.00;;;7.10;;
41141;SDS011;63666;52.284;20.890;2022-10-18T02:42:56;8.40;;;7.50;;
41141;SDS011;63666;52.284;20.890;2022-10-18T02:45:28;8.50;;;7.40;;
41141;SDS011;63666;52.284;20.890;2022-10-18T02:48:00;8.20;;;7.00;;
41141;SDS011;63666;52.284;20.890;2022-10-18T02:50:33;8.80;;;7.60;;
41141;SDS011;63666;52.284;20.890;2022-10-18T02:53:05;7.80;;;7.00;;
41141;SDS011;63666;52.284;20.890;2022-10-18T02:55:38;8.50;;;7.30;;
41141;SDS011;63666;52.284;20.890;2022-10-18T02:58:10;7.80;;;7.00;;
41141;SDS011;63666;52.284;20.890;2022-10-18T03:00:42;8.30;;;7.00;;
41141;SDS011;63666;52.284;20.890;2022-10-18T03:03:14;8.20;;;7.10;;
41141;SDS011;63666;52.284;20.890;2022-10-18T03:05:49;8.40;;;6.80;;
41141;SDS011;63666;52.284;20.890;2022-10-18T03:08:21;9.30;;;7.70;;
41141;SDS011;63666;52.284;20.890;2022-10-18T03:10:54;8.40;;;6.70;;
41141;SDS011;63666;52.284;20.890;2022-10-18T03:13:26;7.50;;;6.70;;
41141;SDS011;63666;52.284;20.890;2022-10-18T03:15:58;8.50;;;6.90;;
41141;SDS011;63666;52.284;20.890;2022-10-18T03:18:30;8.00;;;6.70;;
41141;SDS011;63666;52.284;20.890;2022-10-18T03:21:05;8.10;;;7.10;;
41141;SDS011;63666;52.284;20.890;2022-10-18T03:23:38;8.10;;;6.60;;
41141;SDS011;63666;52.284;20.890;2022-10-18T03:26:11;8.10;;;6.80;;
41141;SDS011;63666;52.284;20.890;2022-10-18T03:28:43;7.80;;;6.90;;
41141;SDS011;63666;52.284;20.890;2022-10-18T03:31:15;7.80;;;6.50;;
41141;SDS011;63666;52.284;20.890;2022-10-18T03:33:47;8.20;;;6.60;;
41141;SDS011;63666;52.284;20.890;2022-10-18T03:36:22;7.80;;;6.60;;
41141;SDS011;63666;52.284;20.890;2022-10-18T03:38:54;7.10;;;6.10;;
41141;SDS011;63666;52.284;20.890;2022-10-18T03:41:27;7.90;;;6.70;;
41141;SDS011;63666;52.284;20.890;2022-10-18T03:44:01;8.50;;;6.80;;
41141;SDS011;63666;52.284;20.890;2022-10-18T03:46:34;7.30;;;6.20;;
41141;SDS011;63666;52.284;20.890;2022-10-18T03:49:08;7.80;;;6.70;;
41141;SDS011;63666;52.284;20.890;2022-10-18T03:51:40;8.00;;;6.50;;
41141;SDS011;63666;52.284;20.890;2022-10-18T03:54:12;7.40;;;6.50;;
41141;SDS011;63666;52.284;20.890;2022-10-18T03:56:44;7.70;;;6.40;;
41141;SDS011;63666;52.284;20.890;2022-10-18T03:59:19;7.50;;;6.20;;
41141;SDS011;63666;52.284;20.890;2022-10-18T04:01:51;8.00;;;6.50;;
41141;SDS011;63666;52.284;20.890;2022-10-18T04:04:25;7.90;;;6.40;;
41141;SDS011;63666;52.284;20.890;2022-10-18T04:06:57;7.80;;;6.80;;
41141;SDS011;63666;52.284;20.890;2022-10-18T04:09:29;6.80;;;5.60;;
41141;SDS011;63666;52.284;20.890;2022-10-18T04:12:01;7.20;;;5.90;;
41141;SDS011;63666;52.284;20.890;2022-10-18T04:14:34;7.50;;;6.30;;
41141;SDS011;63666;52.284;20.890;2022-10-18T04:17:06;7.90;;;6.10;;
41141;SDS011;63666;52.284;20.890;2022-10-18T04:19:38;6.90;;;5.90;;
41141;SDS011;63666;52.284;20.890;2022-10-18T04:22:11;7.10;;;6.00;;
41141;SDS011;63666;52.284;20.890;2022-10-18T04:24:43;7.30;;;6.20;;
41141;SDS011;63666;52.284;20.890;2022-10-18T04:27:15;7.10;;;6.00;;
41141;SDS011;63666;52.284;20.890;2022-10-18T04:29:46;7.50;;;5.80;;
41141;SDS011;63666;52.284;20.890;2022-10-18T04:32:18;8.00;;;6.40;;
41141;SDS011;63666;52.284;20.890;2022-10-18T04:34:51;6.50;;;5.60;;
41141;SDS011;63666;52.284;20.890;2022-10-18T04:37:23;7.20;;;6.10;;
41141;SDS011;63666;52.284;20.890;2022-10-18T04:39:55;8.30;;;6.80;;
41141;SDS011;63666;52.284;20.890;2022-10-18T04:42:27;7.70;;;6.50;;
41141;SDS011;63666;52.284;20.890;2022-10-18T04:44:59;7.50;;;6.00;;
41141;SDS011;63666;52.284;20.890;2022-10-18T04:47:31;7.20;;;6.00;;
41141;SDS011;63666;52.284;20.890;2022-10-18T04:50:04;6.70;;;5.90;;
41141;SDS011;63666;52.284;20.890;2022-10-18T04:52:40;7.70;;;6.20;;
41141;SDS011;63666;52.284;20.890;2022-10-18T04:55:12;7.80;;;6.50;;
41141;SDS011;63666;52.284;20.890;2022-10-18T04:57:43;8.40;;;6.70;;
41141;SDS011;63666;52.284;20.890;2022-10-18T05:00:16;7.00;;;6.00;;
41141;SDS011;63666;52.284;20.890;2022-10-18T05:02:49;7.00;;;6.20;;
41141;SDS011;63666;52.284;20.890;2022-10-18T05:05:26;7.90;;;6.40;;
41141;SDS011;63666;52.284;20.890;2022-10-18T05:07:58;7.50;;;6.40;;
41141;SDS011;63666;52.284;20.890;2022-10-18T05:10:30;8.30;;;6.40;;
41141;SDS011;63666;52.284;20.890;2022-10-18T05:13:02;7.90;;;6.70;;
41141;SDS011;63666;52.284;20.890;2022-10-18T05:15:34;7.50;;;6.00;;
41141;SDS011;63666;52.284;20.890;2022-10-18T05:18:06;8.50;;;6.20;;
41141;SDS011;63666;52.284;20.890;2022-10-18T05:20:38;6.70;;;6.00;;
41141;SDS011;63666;52.284;20.890;2022-10-18T05:23:11;7.00;;;5.80;;
41141;SDS011;63666;52.284;20.890;2022-10-18T05:25:43;8.20;;;6.30;;
41141;SDS011;63666;52.284;20.890;2022-10-18T05:28:15;7.60;;;5.70;;
41141;SDS011;63666;52.284;20.890;2022-10-18T05:30:47;6.80;;;5.80;;
41141;SDS011;63666;52.284;20.890;2022-10-18T05:33:20;7.40;;;5.70;;
41141;SDS011;63666;52.284;20.890;2022-10-18T05:35:52;6.90;;;5.50;;
41141;SDS011;63666;52.284;20.890;2022-10-18T05:38:24;7.20;;;6.00;;
41141;SDS011;63666;52.284;20.890;2022-10-18T05:41:02;7.40;;;6.00;;
41141;SDS011;63666;52.284;20.890;2022-10-18T05:43:35;7.60;;;6.00;;
41141;SDS011;63666;52.284;20.890;2022-10-18T05:46:07;6.70;;;5.70;;
41141;SDS011;63666;52.284;20.890;2022-10-18T05:48:42;7.20;;;5.70;;
41141;SDS011;63666;52.284;20.890;2022-10-18T05:51:18;8.70;;;5.70;;
41141;SDS011;63666;52.284;20.890;2022-10-18T05:53:50;6.60;;;5.50;;
41141;SDS011;63666;52.284;20.890;2022-10-18T05:56:23;7.20;;;5.70;;
41141;SDS011;63666;52.284;20.890;2022-10-18T05:58:55;7.60;;;5.30;;
41141;SDS011;63666;52.284;20.890;2022-10-18T06:01:27;7.30;;;5.80;;
41141;SDS011;63666;52.284;20.890;2022-10-18T06:03:59;6.90;;;5.50;;
41141;SDS011;63666;52.284;20.890;2022-10-18T06:09:06;6.40;;;5.40;;
41141;SDS011;63666;52.284;20.890;2022-10-18T06:11:39;6.80;;;5.20;;
41141;SDS011;63666;52.284;20.890;2022-10-18T06:14:18;7.00;;;5.60;;
41141;SDS011;63666;52.284;20.890;2022-10-18T06:16:50;7.00;;;5.60;;
41141;SDS011;63666;52.284;20.890;2022-10-18T06:19:22;8.70;;;6.60;;
41141;SDS011;63666;52.284;20.890;2022-10-18T06:21:57;7.70;;;6.20;;
41141;SDS011;63666;52.284;20.890;2022-10-18T06:24:29;9.50;;;6.20;;
41141;SDS011;63666;52.284;20.890;2022-10-18T06:27:01;8.70;;;6.00;;
41141;SDS011;63666;52.284;20.890;2022-10-18T06:29:37;8.40;;;6.10;;
41141;SDS011;63666;52.284;20.890;2022-10-18T06:32:10;9.40;;;6.80;;
41141;SDS011;63666;52.284;20.890;2022-10-18T06:34:42;8.90;;;6.60;;
41141;SDS011;63666;52.284;20.890;2022-10-18T06:37:14;8.70;;;6.20;;
41141;SDS011;63666;52.284;20.890;2022-10-18T06:39:45;8.30;;;5.90;;
41141;SDS011;63666;52.284;20.890;2022-10-18T06:42:17;10.00;;;6.70;;
41141;SDS011;63666;52.284;20.890;2022-10-18T06:44:49;10.80;;;7.00;;
41141;SDS011;63666;52.284;20.890;2022-10-18T06:47:25;10.20;;;6.90;;
41141;SDS011;63666;52.284;20.890;2022-10-18T06:49:57;8.70;;;6.40;;
41141;SDS011;63666;52.284;20.890;2022-10-18T06:52:29;10.60;;;7.00;;
41141;SDS011;63666;52.284;20.890;2022-10-18T06:55:01;9.20;;;6.90;;
41141;SDS011;63666;52.284;20.890;2022-10-18T06:57:34;10.60;;;6.90;;
41141;SDS011;63666;52.284;20.890;2022-10-18T07:00:08;10.70;;;7.10;;
41141;SDS011;63666;52.284;20.890;2022-10-18T07:02:43;10.10;;;6.50;;
41141;SDS011;63666;52.284;20.890;2022-10-18T07:05:15;9.60;;;7.30;;
41141;SDS011;63666;52.284;20.890;2022-10-18T07:07:48;9.60;;;6.80;;
41141;SDS011;63666;52.284;20.890;2022-10-18T07:10:20;10.30;;;6.90;;
41141;SDS011;63666;52.284;20.890;2022-10-18T07:12:52;10.80;;;6.80;;
41141;SDS011;63666;52.284;20.890;2022-10-18T07:15:24;10.10;;;7.00;;
41141;SDS011;63666;52.284;20.890;2022-10-18T07:17:57;9.00;;;6.20;;
41141;SDS011;63666;52.284;20.890;2022-10-18T07:20:29;10.10;;;6.60;;
41141;SDS011;63666;52.284;20.890;2022-10-18T07:23:01;11.20;;;6.60;;
41141;SDS011;63666;52.284;20.890;2022-10-18T07:25:36;9.20;;;6.40;;
41141;SDS011;63666;52.284;20.890;2022-10-18T07:28:08;9.80;;;7.10;;
41141;SDS011;63666;52.284;20.890;2022-10-18T07:30:40;10.20;;;6.70;;
41141;SDS011;63666;52.284;20.890;2022-10-18T07:33:13;9.10;;;6.10;;
41141;SDS011;63666;52.284;20.890;2022-10-18T07:35:45;9.70;;;6.20;;
41141;SDS011;63666;52.284;20.890;2022-10-18T07:38:17;10.30;;;6.30;;
41141;SDS011;63666;52.284;20.890;2022-10-18T07:40:56;8.50;;;6.60;;
41141;SDS011;63666;52.284;20.890;2022-10-18T07:43:29;8.40;;;6.30;;
41141;SDS011;63666;52.284;20.890;2022-10-18T07:46:03;9.10;;;6.30;;
41141;SDS011;63666;52.284;20.890;2022-10-18T07:48:38;8.10;;;5.90;;
41141;SDS011;63666;52.284;20.890;2022-10-18T07:51:11;8.70;;;6.30;;
41141;SDS011;63666;52.284;20.890;2022-10-18T07:53:43;8.80;;;6.20;;
41141;SDS011;63666;52.284;20.890;2022-10-18T07:56:20;7.50;;;5.90;;
41141;SDS011;63666;52.284;20.890;2022-10-18T07:58:54;8.50;;;6.10;;
41141;SDS011;63666;52.284;20.890;2022-10-18T08:01:26;7.90;;;5.60;;
41141;SDS011;63666;52.284;20.890;2022-10-18T08:04:14;8.80;;;5.80;;
41141;SDS011;63666;52.284;20.890;2022-10-18T08:06:46;7.80;;;5.80;;
41141;SDS011;63666;52.284;20.890;2022-10-18T08:09:18;7.40;;;5.90;;
41141;SDS011;63666;52.284;20.890;2022-10-18T08:11:50;9.40;;;6.00;;
41141;SDS011;63666;52.284;20.890;2022-10-18T08:14:22;7.60;;;5.80;;
41141;SDS011;63666;52.284;20.890;2022-10-18T08:16:55;7.70;;;5.50;;
41141;SDS011;63666;52.284;20.890;2022-10-18T08:19:31;7.70;;;5.70;;
41141;SDS011;63666;52.284;20.890;2022-10-18T08:22:03;7.80;;;5.40;;
41141;SDS011;63666;52.284;20.890;2022-10-18T08:24:35;8.30;;;5.60;;
41141;SDS011;63666;52.284;20.890;2022-10-18T08:27:06;7.90;;;6.00;;
41141;SDS011;63666;52.284;20.890;2022-10-18T08:29:38;8.40;;;5.80;;
41141;SDS011;63666;52.284;20.890;2022-10-18T08:32:11;7.30;;;6.40;;
41141;SDS011;63666;52.284;20.890;2022-10-18T08:37:17;8.30;;;5.40;;
41141;SDS011;63666;52.284;20.890;2022-10-18T08:39:49;8.10;;;5.80;;
41141;SDS011;63666;52.284;20.890;2022-10-18T08:42:31;7.50;;;5.30;;
41141;SDS011;63666;52.284;20.890;2022-10-18T08:45:11;7.20;;;5.90;;
41141;SDS011;63666;52.284;20.890;2022-10-18T08:47:45;7.10;;;5.50;;
41141;SDS011;63666;52.284;20.890;2022-10-18T08:50:22;6.90;;;5.40;;
41141;SDS011;63666;52.284;20.890;2022-10-18T08:53:05;8.20;;;5.50;;
41141;SDS011;63666;52.284;20.890;2022-10-18T08:55:51;7.10;;;5.70;;
41141;SDS011;63666;52.284;20.890;2022-10-18T08:58:30;7.90;;;5.50;;
41141;SDS011;63666;52.284;20.890;2022-10-18T09:01:14;7.70;;;6.00;;
41141;SDS011;63666;52.284;20.890;2022-10-18T09:04:14;7.50;;;5.60;;
41141;SDS011;63666;52.284;20.890;2022-10-18T09:07:01;7.60;;;5.70;;
41141;SDS011;63666;52.284;20.890;2022-10-18T09:09:47;6.60;;;5.30;;
41141;SDS011;63666;52.284;20.890;2022-10-18T09:12:46;7.60;;;5.60;;
41141;SDS011;63666;52.284;20.890;2022-10-18T09:15:30;7.20;;;6.00;;
41141;SDS011;63666;52.284;20.890;2022-10-18T09:18:23;6.60;;;5.40;;
41141;SDS011;63666;52.284;20.890;2022-10-18T09:21:07;7.00;;;5.10;;
41141;SDS011;63666;52.284;20.890;2022-10-18T09:23:52;7.10;;;5.80;;
41141;SDS011;63666;52.284;20.890;2022-10-18T09:26:36;7.40;;;5.70;;
41141;SDS011;63666;52.284;20.890;2022-10-18T09:29:29;7.20;;;5.60;;
41141;SDS011;63666;52.284;20.890;2022-10-18T09:32:18;6.80;;;5.40;;
41141;SDS011;63666;52.284;20.890;2022-10-18T09:34:59;6.80;;;5.40;;
41141;SDS011;63666;52.284;20.890;2022-10-18T09:37:36;7.40;;;6.10;;
41141;SDS011;63666;52.284;20.890;2022-10-18T09:40:16;8.20;;;5.70;;
41141;SDS011;63666;52.284;20.890;2022-10-18T09:42:56;7.00;;;5.80;;
41141;SDS011;63666;52.284;20.890;2022-10-18T09:45:32;6.60;;;5.40;;
41141;SDS011;63666;52.284;20.890;2022-10-18T09:48:13;7.40;;;5.90;;
41141;SDS011;63666;52.284;20.890;2022-10-18T09:50:50;7.90;;;6.10;;
41141;SDS011;63666;52.284;20.890;2022-10-18T09:53:35;7.20;;;5.60;;
41141;SDS011;63666;52.284;20.890;2022-10-18T09:56:15;6.80;;;5.40;;
41141;SDS011;63666;52.284;20.890;2022-10-18T09:58:50;7.30;;;6.30;;
41141;SDS011;63666;52.284;20.890;2022-10-18T10:01:27;7.00;;;6.20;;
41141;SDS011;63666;52.284;20.890;2022-10-18T10:04:00;7.70;;;5.80;;
41141;SDS011;63666;52.284;20.890;2022-10-18T10:06:32;7.70;;;5.90;;
41141;SDS011;63666;52.284;20.890;2022-10-18T10:09:13;7.80;;;6.20;;
41141;SDS011;63666;52.284;20.890;2022-10-18T10:11:51;7.00;;;6.00;;
41141;SDS011;63666;52.284;20.890;2022-10-18T10:14:26;6.90;;;5.80;;
41141;SDS011;63666;52.284;20.890;2022-10-18T10:17:24;7.40;;;5.70;;
41141;SDS011;63666;52.284;20.890;2022-10-18T10:20:01;7.00;;;5.60;;
41141;SDS011;63666;52.284;20.890;2022-10-18T10:22:45;7.20;;;6.10;;
41141;SDS011;63666;52.284;20.890;2022-10-18T10:25:27;7.10;;;6.10;;
41141;SDS011;63666;52.284;20.890;2022-10-18T10:28:05;7.20;;;6.40;;
41141;SDS011;63666;52.284;20.890;2022-10-18T10:30:42;8.00;;;6.60;;
41141;SDS011;63666;52.284;20.890;2022-10-18T10:33:31;7.30;;;6.50;;
41141;SDS011;63666;52.284;20.890;2022-10-18T10:36:19;7.80;;;6.40;;
41141;SDS011;63666;52.284;20.890;2022-10-18T10:39:06;6.90;;;6.10;;
41141;SDS011;63666;52.284;20.890;2022-10-18T10:41:41;7.20;;;6.20;;
41141;SDS011;63666;52.284;20.890;2022-10-18T10:44:19;7.80;;;6.50;;
41141;SDS011;63666;52.284;20.890;2022-10-18T10:46:53;7.60;;;6.30;;
41141;SDS011;63666;52.284;20.890;2022-10-18T10:52:01;7.70;;;6.50;;
41141;SDS011;63666;52.284;20.890;2022-10-18T10:54:36;8.40;;;6.80;;
41141;SDS011;63666;52.284;20.890;2022-10-18T10:57:22;8.40;;;6.70;;
41141;SDS011;63666;52.284;20.890;2022-10-18T10:59:57;8.10;;;7.00;;
41141;SDS011;63666;52.284;20.890;2022-10-18T11:02:32;8.10;;;6.60;;
41141;SDS011;63666;52.284;20.890;2022-10-18T11:05:22;8.10;;;7.10;;
41141;SDS011;63666;52.284;20.890;2022-10-18T11:08:01;7.40;;;6.70;;
41141;SDS011;63666;52.284;20.890;2022-10-18T11:10:41;7.30;;;6.50;;
41141;SDS011;63666;52.284;20.890;2022-10-18T11:13:34;7.50;;;6.40;;
41141;SDS011;63666;52.284;20.890;2022-10-18T11:16:19;8.10;;;6.90;;
41141;SDS011;63666;52.284;20.890;2022-10-18T11:18:57;8.70;;;6.80;;
41141;SDS011;63666;52.284;20.890;2022-10-18T11:21:32;8.50;;;6.80;;
41141;SDS011;63666;52.284;20.890;2022-10-18T11:24:08;8.20;;;7.30;;
41141;SDS011;63666;52.284;20.890;2022-10-18T11:26:51;8.00;;;6.70;;
41141;SDS011;63666;52.284;20.890;2022-10-18T11:29:37;8.30;;;7.20;;
41141;SDS011;63666;52.284;20.890;2022-10-18T11:32:21;9.30;;;6.80;;
41141;SDS011;63666;52.284;20.890;2022-10-18T11:35:19;7.70;;;6.90;;
41141;SDS011;63666;52.284;20.890;2022-10-18T11:38:12;8.70;;;7.10;;
41141;SDS011;63666;52.284;20.890;2022-10-18T11:41:01;10.20;;;8.10;;
41141;SDS011;63666;52.284;20.890;2022-10-18T11:43:48;10.30;;;8.80;;
41141;SDS011;63666;52.284;20.890;2022-10-18T11:46:30;10.30;;;9.20;;
41141;SDS011;63666;52.284;20.890;2022-10-18T11:49:29;12.70;;;9.80;;
41141;SDS011;63666;52.284;20.890;2022-10-18T11:52:18;11.20;;;10.00;;
41141;SDS011;63666;52.284;20.890;2022-10-18T11:55:08;11.30;;;10.00;;
41141;SDS011;63666;52.284;20.890;2022-10-18T11:57:53;11.70;;;10.50;;
41141;SDS011;63666;52.284;20.890;2022-10-18T12:00:39;12.90;;;11.60;;
41141;SDS011;63666;52.284;20.890;2022-10-18T12:03:29;13.00;;;11.40;;
41141;SDS011;63666;52.284;20.890;2022-10-18T12:06:09;13.00;;;11.20;;
41141;SDS011;63666;52.284;20.890;2022-10-18T12:08:47;12.40;;;11.10;;
41141;SDS011;63666;52.284;20.890;2022-10-18T12:11:25;12.30;;;11.10;;
41141;SDS011;63666;52.284;20.890;2022-10-18T12:14:01;12.50;;;11.20;;
41141;SDS011;63666;52.284;20.890;2022-10-18T12:16:38;12.00;;;10.80;;
41141;SDS011;63666;52.284;20.890;2022-10-18T12:19:17;12.90;;;11.00;;
41141;SDS011;63666;52.284;20.890;2022-10-18T12:21:57;12.80;;;11.40;;
41141;SDS011;63666;52.284;20.890;2022-10-18T12:24:36;11.80;;;10.60;;
41141;SDS011;63666;52.284;20.890;2022-10-18T12:27:12;14.00;;;11.40;;
41141;SDS011;63666;52.284;20.890;2022-10-18T12:29:51;12.60;;;10.30;;
41141;SDS011;63666;52.284;20.890;2022-10-18T12:32:28;12.10;;;10.70;;
41141;SDS011;63666;52.284;20.890;2022-10-18T12:35:08;11.30;;;10.20;;
41141;SDS011;63666;52.284;20.890;2022-10-18T12:38:01;11.80;;;10.60;;
41141;SDS011;63666;52.284;20.890;2022-10-18T12:40:49;11.90;;;10.70;;
41141;SDS011;63666;52.284;20.890;2022-10-18T12:43:27;11.90;;;10.40;;
41141;SDS011;63666;52.284;20.890;2022-10-18T12:46:06;12.00;;;10.60;;
41141;SDS011;63666;52.284;20.890;2022-10-18T12:48:46;12.20;;;10.90;;
41141;SDS011;63666;52.284;20.890;2022-10-18T12:51:32;11.90;;;10.70;;
41141;SDS011;63666;52.284;20.890;2022-10-18T12:54:11;14.00;;;11.10;;
41141;SDS011;63666;52.284;20.890;2022-10-18T12:56:46;12.60;;;11.00;;
41141;SDS011;63666;52.284;20.890;2022-10-18T12:59:42;12.70;;;10.90;;
41141;SDS011;63666;52.284;20.890;2022-10-18T13:02:28;12.10;;;10.70;;
41141;SDS011;63666;52.284;20.890;2022-10-18T13:08:40;11.90;;;10.70;;
41141;SDS011;63666;52.284;20.890;2022-10-18T13:11:35;11.80;;;10.60;;
41141;SDS011;63666;52.284;20.890;2022-10-18T13:14:19;12.60;;;11.30;;
41141;SDS011;63666;52.284;20.890;2022-10-18T13:17:04;11.20;;;10.10;;
41141;SDS011;63666;52.284;20.890;2022-10-18T13:19:52;12.50;;;11.20;;
41141;SDS011;63666;52.284;20.890;2022-10-18T13:22:43;11.90;;;10.70;;
41141;SDS011;63666;52.284;20.890;2022-10-18T13:25:26;11.50;;;10.40;;
41141;SDS011;63666;52.284;20.890;2022-10-18T13:28:15;12.50;;;11.30;;
41141;SDS011;63666;52.284;20.890;2022-10-18T13:30:56;12.80;;;11.60;;
41141;SDS011;63666;52.284;20.890;2022-10-18T13:33:38;11.60;;;10.40;;
41141;SDS011;63666;52.284;20.890;2022-10-18T13:36:22;12.90;;;11.60;;
41141;SDS011;63666;52.284;20.890;2022-10-18T13:39:14;12.80;;;11.50;;
41141;SDS011;63666;52.284;20.890;2022-10-18T13:42:28;13.30;;;11.90;;
41141;SDS011;63666;52.284;20.890;2022-10-18T13:48:47;12.50;;;11.30;;
41141;SDS011;63666;52.284;20.890;2022-10-18T13:51:39;12.50;;;11.30;;
41141;SDS011;63666;52.284;20.890;2022-10-18T13:54:36;12.80;;;11.40;;
41141;SDS011;63666;52.284;20.890;2022-10-18T13:57:26;12.50;;;11.20;;
41141;SDS011;63666;52.284;20.890;2022-10-18T14:00:34;11.90;;;10.80;;
41141;SDS011;63666;52.284;20.890;2022-10-18T14:03:32;12.70;;;11.00;;
41141;SDS011;63666;52.284;20.890;2022-10-18T14:06:16;12.40;;;10.90;;
41141;SDS011;63666;52.284;20.890;2022-10-18T14:08:55;12.20;;;11.00;;
41141;SDS011;63666;52.284;20.890;2022-10-18T14:11:35;12.30;;;11.10;;
41141;SDS011;63666;52.284;20.890;2022-10-18T14:14:17;12.80;;;11.50;;
41141;SDS011;63666;52.284;20.890;2022-10-18T14:16:57;12.40;;;11.00;;
41141;SDS011;63666;52.284;20.890;2022-10-18T14:19:39;12.20;;;10.90;;
41141;SDS011;63666;52.284;20.890;2022-10-18T14:22:17;11.80;;;10.60;;
41141;SDS011;63666;52.284;20.890;2022-10-18T14:24:52;12.20;;;10.60;;
41141;SDS011;63666;52.284;20.890;2022-10-18T14:27:27;12.10;;;10.90;;
41141;SDS011;63666;52.284;20.890;2022-10-18T14:30:12;12.70;;;11.50;;
41141;SDS011;63666;52.284;20.890;2022-10-18T14:32:47;12.10;;;10.90;;
41141;SDS011;63666;52.284;20.890;2022-10-18T14:35:24;12.50;;;11.20;;
41141;SDS011;63666;52.284;20.890;2022-10-18T14:38:01;12.40;;;11.20;;
41141;SDS011;63666;52.284;20.890;2022-10-18T14:40:37;12.50;;;11.30;;
41141;SDS011;63666;52.284;20.890;2022-10-18T14:43:14;12.30;;;11.10;;
41141;SDS011;63666;52.284;20.890;2022-10-18T14:45:48;11.60;;;10.40;;
41141;SDS011;63666;52.284;20.890;2022-10-18T14:48:23;12.80;;;11.50;;
41141;SDS011;63666;52.284;20.890;2022-10-18T14:50:58;11.80;;;10.60;;
41141;SDS011;63666;52.284;20.890;2022-10-18T14:53:35;12.20;;;11.00;;
41141;SDS011;63666;52.284;20.890;2022-10-18T14:56:21;11.90;;;10.70;;
41141;SDS011;63666;52.284;20.890;2022-10-18T14:58:59;11.70;;;10.50;;
41141;SDS011;63666;52.284;20.890;2022-10-18T15:01:32;12.60;;;11.30;;
41141;SDS011;63666;52.284;20.890;2022-10-18T15:04:11;11.80;;;10.60;;
41141;SDS011;63666;52.284;20.890;2022-10-18T15:06:45;12.20;;;10.90;;
41141;SDS011;63666;52.284;20.890;2022-10-18T15:09:22;10.50;;;9.50;;
41141;SDS011;63666;52.284;20.890;2022-10-18T15:11:56;11.50;;;10.30;;
41141;SDS011;63666;52.284;20.890;2022-10-18T15:14:29;11.70;;;10.50;;
41141;SDS011;63666;52.284;20.890;2022-10-18T15:17:11;11.90;;;10.50;;
41141;SDS011;63666;52.284;20.890;2022-10-18T15:19:56;11.90;;;10.70;;
41141;SDS011;63666;52.284;20.890;2022-10-18T15:22:31;11.40;;;10.30;;
41141;SDS011;63666;52.284;20.890;2022-10-18T15:25:12;11.20;;;10.10;;
41141;SDS011;63666;52.284;20.890;2022-10-18T15:27:49;12.10;;;10.90;;
41141;SDS011;63666;52.284;20.890;2022-10-18T15:30:28;11.80;;;10.60;;
41141;SDS011;63666;52.284;20.890;2022-10-18T15:33:16;11.40;;;10.20;;
41141;SDS011;63666;52.284;20.890;2022-10-18T15:35:52;11.00;;;9.90;;
41141;SDS011;63666;52.284;20.890;2022-10-18T15:38:29;11.40;;;10.30;;
41141;SDS011;63666;52.284;20.890;2022-10-18T15:41:02;11.00;;;9.80;;
41141;SDS011;63666;52.284;20.890;2022-10-18T15:44:13;11.30;;;10.10;;
41141;SDS011;63666;52.284;20.890;2022-10-18T15:46:52;11.50;;;10.30;;
41141;SDS011;63666;52.284;20.890;2022-10-18T15:49:53;10.60;;;9.50;;